Time;durP1;ratioP1;P1;durP2;ratioP2;P2;SDS_P1;SDS_P2;PMS_P1;PMS_P2;Temp;Humidity;BMP_temperature;BMP_pressure;BME280_temperature;BME280_humidity;BME280_pressure;Samples;Min_cycle;Max_cycle;Signal;HPM_P1;HPM_P2
2022/05/19 00:00:23;;;;;;;2.47;2.37;;;;;;;12.03;100.00;100592.41;5010533;28;20210;-67
2022/05/19 00:02:50;;;;;;;2.50;2.40;;;;;;;11.98;100.00;100591.66;5010425;28;20213;-67
2022/05/19 00:05:17;;;;;;;3.77;2.30;;;;;;;11.83;100.00;100577.31;5009559;28;20669;-67
2022/05/19 00:07:44;;;;;;;2.70;2.60;;;;;;;11.90;100.00;100596.91;5006429;28;20641;-67
2022/05/19 00:10:10;;;;;;;2.40;2.20;;;;;;;11.88;100.00;100601.25;5009997;28;20204;-67
2022/05/19 00:12:37;;;;;;;2.30;2.20;;;;;;;11.84;100.00;100603.88;5010597;28;20209;-67
2022/05/19 00:15:07;;;;;;;2.63;2.53;;;;;;;11.83;100.00;100597.88;5010042;28;20209;-67
2022/05/19 00:17:34;;;;;;;1.83;1.73;;;;;;;11.75;100.00;100583.47;5010413;28;20200;-67
2022/05/19 00:20:01;;;;;;;1.83;1.73;;;;;;;11.78;100.00;100603.97;5010329;28;20201;-67
2022/05/19 00:22:27;;;;;;;1.97;1.87;;;;;;;11.77;100.00;100597.13;5010165;28;20804;-67
2022/05/19 00:24:54;;;;;;;2.10;2.00;;;;;;;11.76;100.00;100595.47;5010523;28;20202;-67
2022/05/19 00:27:21;;;;;;;1.87;1.33;;;;;;;11.77;100.00;100602.25;5010031;28;20228;-67
2022/05/19 00:29:48;;;;;;;1.60;1.60;;;;;;;11.75;100.00;100598.88;5010437;28;20201;-67
2022/05/19 00:32:16;;;;;;;1.97;1.87;;;;;;;11.71;100.00;100602.38;5009656;28;20197;-67
2022/05/19 00:34:43;;;;;;;1.40;1.40;;;;;;;11.70;100.00;100598.06;5010599;28;20201;-67
2022/05/19 00:37:10;;;;;;;1.33;1.33;;;;;;;11.71;100.00;100598.09;5008929;28;20228;-67
2022/05/19 00:39:37;;;;;;;1.27;1.27;;;;;;;11.68;100.00;100594.69;5008958;28;20228;-67
2022/05/19 00:44:49;;;;;;;1.63;1.53;;;;;;;11.64;100.00;100595.59;5005436;28;20205;-67
2022/05/19 00:47:21;;;;;;;1.50;1.50;;;;;;;11.57;100.00;100595.69;5009776;28;20708;-68
2022/05/19 00:49:50;;;;;;;1.87;1.77;;;;;;;11.53;100.00;100586.31;5010480;28;20210;-67
2022/05/19 00:52:23;;;;;;;2.80;1.83;;;;;;;11.42;100.00;100580.53;5009893;28;20583;-67
2022/05/19 00:54:55;;;;;;;1.87;1.87;;;;;;;11.34;100.00;100586.66;5010396;28;20213;-67
2022/05/19 00:57:25;;;;;;;1.40;1.40;;;;;;;11.28;100.00;100585.00;5009683;28;20202;-67
2022/05/19 00:59:55;;;;;;;1.77;1.67;;;;;;;11.27;100.00;100585.88;5010062;28;20792;-67
2022/05/19 01:02:27;;;;;;;2.00;1.90;;;;;;;11.24;100.00;100585.94;5009759;28;20216;-67
2022/05/19 01:04:58;;;;;;;1.57;1.57;;;;;;;11.24;100.00;100591.06;5010243;28;20199;-67
2022/05/19 01:07:31;;;;;;;1.50;1.40;;;;;;;11.18;100.00;100575.72;5002341;28;20387;-67
2022/05/19 01:09:58;;;;;;;1.93;1.70;;;;;;;11.24;100.00;100585.06;4994142;28;20236;-67
2022/05/19 01:12:28;;;;;;;1.40;1.40;;;;;;;11.14;100.00;100574.09;4993868;28;20217;-67
2022/05/19 01:14:55;;;;;;;1.57;1.57;;;;;;;11.17;100.00;100583.47;4994123;28;20690;-68
2022/05/19 01:17:23;;;;;;;1.17;1.17;;;;;;;11.13;100.00;100586.94;4993779;28;20202;-67
2022/05/19 01:19:56;;;;;;;1.40;1.40;;;;;;;11.12;100.00;100586.06;4993929;28;20210;-67
2022/05/19 01:22:31;;;;;;;1.87;1.77;;;;;;;11.06;100.00;100578.47;4993623;28;20439;-67
2022/05/19 01:25:05;;;;;;;1.30;1.30;;;;;;;11.03;100.00;100581.94;4993562;28;20252;-67
2022/05/19 01:27:34;;;;;;;1.83;1.77;;;;;;;10.96;100.00;100574.31;4992246;28;20218;-67
2022/05/19 01:30:01;;;;;;;1.97;1.90;;;;;;;10.90;100.00;100582.94;4991102;28;20555;-67
2022/05/19 01:32:30;;;;;;;2.20;2.10;;;;;;;10.83;100.00;100580.47;4990996;28;20197;-67
2022/05/19 01:34:58;;;;;;;1.70;1.70;;;;;;;10.72;100.00;100574.63;4992938;28;20211;-67
2022/05/19 01:37:26;;;;;;;2.07;2.00;;;;;;;10.72;100.00;100580.63;4991352;28;20214;-67
2022/05/19 01:39:57;;;;;;;4.60;1.90;;;;;;;10.69;100.00;100580.66;4993112;28;20245;-67
2022/05/19 01:42:42;;;;;;;1.97;1.87;;;;;;;10.71;100.00;100588.31;4993193;28;20211;-67
2022/05/19 01:45:25;;;;;;;4.10;2.13;;;;;;;10.67;100.00;100584.09;4992899;28;20195;-67
2022/05/19 01:47:58;;;;;;;2.60;2.40;;;;;;;10.66;100.00;100590.09;4991883;28;20218;-67
2022/05/19 01:50:31;;;;;;;2.30;2.20;;;;;;;10.64;100.00;100586.69;4991830;28;20199;-67
2022/05/19 01:53:04;;;;;;;2.60;2.50;;;;;;;10.58;100.00;100569.66;4991863;28;20207;-67
2022/05/19 01:55:38;;;;;;;2.30;2.20;;;;;;;10.59;100.00;100573.09;4992464;28;20285;-67
2022/05/19 01:58:15;;;;;;;1.80;1.70;;;;;;;10.41;100.00;100538.22;4991562;28;20213;-67
2022/05/19 02:00:43;;;;;;;3.30;3.10;;;;;;;10.64;100.00;100577.28;4988839;28;20198;-67
2022/05/19 02:03:19;;;;;;;2.83;2.73;;;;;;;10.59;100.00;100583.34;4990996;28;20570;-68
2022/05/19 02:05:52;;;;;;;3.17;2.87;;;;;;;10.36;100.00;100565.66;4993407;28;20202;-67
2022/05/19 02:08:23;;;;;;;2.90;2.80;;;;;;;10.34;100.00;100583.59;5009408;28;20229;-67
2022/05/19 02:10:54;;;;;;;2.67;2.57;;;;;;;10.26;100.00;100585.41;5012591;28;20202;-67
2022/05/19 02:13:24;;;;;;;2.63;2.40;;;;;;;10.02;100.00;100585.59;5011326;28;20204;-67
2022/05/19 02:15:53;;;;;;;2.60;2.47;;;;;;;9.85;100.00;100587.47;5011708;28;20202;-67
2022/05/19 02:18:25;;;;;;;2.93;2.73;;;;;;;9.74;100.00;100587.53;5008042;28;20195;-67
2022/05/19 02:20:55;;;;;;;2.93;2.83;;;;;;;9.69;100.00;100585.88;5009621;28;20692;-67
2022/05/19 02:23:22;;;;;;;2.43;2.33;;;;;;;9.64;100.00;100582.50;5008064;28;20225;-67
2022/05/19 02:25:51;;;;;;;3.03;2.67;;;;;;;9.61;100.00;100582.50;5011506;28;20206;-68
2022/05/19 02:28:25;;;;;;;3.10;2.90;;;;;;;9.69;100.00;100585.88;5010899;28;20241;-67
2022/05/19 02:30:52;;;;;;;2.67;2.47;;;;;;;9.72;100.00;100581.59;5007596;28;20213;-67
2022/05/19 02:33:19;;;;;;;2.63;2.53;;;;;;;9.76;100.00;100582.38;5009561;28;20208;-67
2022/05/19 02:35:46;;;;;;;2.43;2.33;;;;;;;9.76;100.00;100584.94;5009201;28;20207;-67
2022/05/19 02:38:13;;;;;;;2.73;2.63;;;;;;;9.77;100.00;100584.09;5008831;28;20198;-68
2022/05/19 02:40:40;;;;;;;2.70;2.60;;;;;;;9.78;100.00;100585.81;5008298;28;20202;-67
2022/05/19 02:43:09;;;;;;;2.33;2.23;;;;;;;9.77;100.00;100589.22;5008271;28;20202;-68
2022/05/19 02:45:37;;;;;;;6.40;2.17;;;;;;;9.80;100.00;100589.19;5011640;28;20206;-67
2022/05/19 02:48:06;;;;;;;2.40;2.30;;;;;;;9.79;100.00;100582.38;5010889;28;20689;-68
2022/05/19 02:50:34;;;;;;;2.63;2.53;;;;;;;9.74;100.00;100584.13;5010553;28;20198;-68
2022/05/19 02:53:01;;;;;;;2.70;2.60;;;;;;;9.73;100.00;100587.53;5010991;28;20249;-67
2022/05/19 02:55:28;;;;;;;2.73;2.63;;;;;;;9.74;100.00;100591.81;5010543;28;20202;-68
2022/05/19 02:57:55;;;;;;;2.47;2.37;;;;;;;9.68;100.00;100584.16;5007019;28;20194;-67
2022/05/19 03:00:24;;;;;;;2.80;2.70;;;;;;;9.68;100.00;100591.84;5007706;28;20206;-67
2022/05/19 03:02:54;;;;;;;2.30;2.20;;;;;;;9.73;100.00;100584.97;5010639;28;20198;-67
2022/05/19 03:05:24;;;;;;;2.60;2.50;;;;;;;9.68;100.00;100584.16;5009660;28;20190;-67
2022/05/19 03:07:50;;;;;;;2.47;2.37;;;;;;;9.71;100.00;100591.81;5010880;28;20325;-68
2022/05/19 03:10:18;;;;;;;2.60;2.50;;;;;;;9.71;100.00;100581.59;5011242;28;20202;-67
2022/05/19 03:12:45;;;;;;;2.63;2.53;;;;;;;9.67;100.00;100590.16;5009716;28;20212;-67
2022/05/19 03:15:13;;;;;;;2.63;2.50;;;;;;;9.68;100.00;100582.47;5011067;28;20217;-68
2022/05/19 03:17:40;;;;;;;2.53;2.43;;;;;;;9.62;100.00;100589.34;5011154;28;20720;-68
2022/05/19 03:20:12;;;;;;;2.90;2.80;;;;;;;9.62;100.00;100592.75;5011068;28;20194;-68
2022/05/19 03:22:39;;;;;;;2.80;2.70;;;;;;;9.53;100.00;100589.41;5010959;28;20202;-68
2022/05/19 03:25:07;;;;;;;2.60;2.50;;;;;;;9.54;100.00;100598.78;5010689;28;20194;-68
2022/05/19 03:27:35;;;;;;;2.70;2.60;;;;;;;9.43;100.00;100614.22;5010426;28;20206;-68
2022/05/19 03:30:07;;;;;;;3.23;3.03;;;;;;;9.45;100.00;100603.09;5009894;28;20214;-68
2022/05/19 03:32:34;;;;;;;2.50;2.40;;;;;;;9.47;100.00;100606.50;5009539;28;20616;-68
2022/05/19 03:35:02;;;;;;;2.97;2.73;;;;;;;9.35;100.00;100585.25;5010634;28;20229;-68
2022/05/19 03:37:30;;;;;;;2.50;2.40;;;;;;;9.41;100.00;100596.31;5009309;28;20228;-68
2022/05/19 03:39:57;;;;;;;2.73;2.63;;;;;;;9.62;100.00;100615.81;5009767;28;20281;-68
2022/05/19 03:42:24;;;;;;;2.93;2.83;;;;;;;9.76;100.00;100610.56;5009609;28;20202;-67
2022/05/19 03:44:51;;;;;;;2.70;2.60;;;;;;;9.90;100.00;100611.31;5010316;28;20217;-68
2022/05/19 03:47:18;;;;;;;2.97;2.83;;;;;;;10.00;100.00;100615.50;5012328;28;20197;-68
2022/05/19 03:49:45;;;;;;;6.20;3.10;;;;;;;10.17;100.00;100616.25;5010492;28;20579;-68
2022/05/19 03:52:12;;;;;;;2.70;2.60;;;;;;;10.29;100.00;100618.69;5010208;28;22292;-68
2022/05/19 03:54:40;;;;;;;2.97;2.83;;;;;;;10.32;100.00;100623.78;5009944;28;20202;-68
2022/05/19 03:57:07;;;;;;;2.80;2.60;;;;;;;10.24;100.00;100610.16;5008819;28;20198;-68
2022/05/19 03:59:34;;;;;;;3.03;2.93;;;;;;;10.33;100.00;100610.09;5009998;28;20194;-68
2022/05/19 04:02:03;;;;;;;2.97;2.77;;;;;;;10.53;100.00;100625.28;5009416;28;20555;-69
2022/05/19 04:04:30;;;;;;;3.30;3.00;;;;;;;10.60;100.00;100633.78;5009934;28;20201;-68
2022/05/19 04:06:57;;;;;;;3.17;3.07;;;;;;;10.70;100.00;100625.09;5003258;28;20635;-68
2022/05/19 04:09:25;;;;;;;3.20;3.00;;;;;;;10.77;100.00;100629.28;4989784;28;20643;-68
2022/05/19 04:11:53;;;;;;;2.73;2.60;;;;;;;10.92;100.00;100624.00;4990899;28;20263;-68
2022/05/19 04:14:21;;;;;;;3.30;3.10;;;;;;;11.15;100.00;100631.41;4989788;28;20203;-68
2022/05/19 04:16:49;;;;;;;2.47;2.37;;;;;;;11.20;100.00;100630.47;4991105;28;20289;-68
2022/05/19 04:19:17;;;;;;;2.50;2.40;;;;;;;11.22;100.00;100627.88;4990132;28;20203;-68
2022/05/19 04:21:44;;;;;;;2.30;2.20;;;;;;;11.28;100.00;100628.63;4990831;28;20257;-68
2022/05/19 04:24:11;;;;;;;2.40;2.30;;;;;;;11.30;100.00;100626.91;4990101;28;20261;-69
2022/05/19 04:26:38;;;;;;;2.80;2.60;;;;;;;11.50;100.00;100624.06;4989811;28;20207;-68
2022/05/19 04:29:07;;;;;;;2.83;2.63;;;;;;;11.61;100.00;100627.31;4989562;28;20226;-68
2022/05/19 04:31:34;;;;;;;2.50;2.30;;;;;;;11.79;100.00;100621.09;4989765;28;20207;-68
2022/05/19 04:34:01;;;;;;;1.93;1.83;;;;;;;11.96;100.00;100634.50;4990633;28;20210;-69
2022/05/19 04:36:28;;;;;;;2.57;2.47;;;;;;;12.08;100.00;100627.44;4989624;28;20202;-68
2022/05/19 04:38:54;;;;;;;2.17;2.07;;;;;;;12.24;100.00;100634.91;4990818;28;20594;-69
2022/05/19 04:41:21;;;;;;;3.07;2.37;;;;;;;12.32;100.00;100628.75;4991982;28;20673;-68
2022/05/19 04:43:48;;;;;;;6.70;2.70;;;;;;;12.54;100.00;100635.19;4994279;28;20674;-69
2022/05/19 04:46:16;;;;;;;2.30;2.20;;;;;;;12.72;100.00;100630.59;4991851;28;20210;-68
2022/05/19 04:48:43;;;;;;;1.90;1.90;;;;;;;12.95;100.00;100633.56;4993006;28;20221;-68
2022/05/19 04:51:10;;;;;;;3.37;2.30;;;;;;;13.01;100.00;100616.28;4991133;28;20201;-68
2022/05/19 04:53:37;;;;;;;4.60;4.33;;;;;;;13.35;100.00;100634.44;4992432;28;20206;-68
2022/05/19 04:56:04;;;;;;;3.13;3.03;;;;;;;13.64;100.00;100633.78;4991085;28;20663;-69
2022/05/19 04:58:31;;;;;;;3.07;2.97;;;;;;;13.98;100.00;100639.00;4990261;28;20202;-69
2022/05/19 05:00:58;;;;;;;3.70;2.40;;;;;;;14.12;100.00;100626.59;4992513;28;20201;-69
2022/05/19 05:03:27;;;;;;;1.93;1.83;;;;;;;14.33;98.32;100645.88;4992771;28;20207;-69
2022/05/19 05:05:54;;;;;;;1.80;1.77;;;;;;;14.52;99.02;100642.78;4993494;28;20222;-69
2022/05/19 05:08:21;;;;;;;2.10;2.00;;;;;;;14.86;99.23;100647.06;5010661;28;20241;-69
2022/05/19 05:10:47;;;;;;;1.80;1.70;;;;;;;15.09;93.45;100634.31;5013234;28;20670;-69
2022/05/19 05:13:16;;;;;;;2.33;2.23;;;;;;;15.47;91.68;100646.97;5013038;28;20557;-68
2022/05/19 05:15:44;;;;;;;2.00;1.90;;;;;;;15.70;90.16;100648.88;5012795;28;20582;-69
2022/05/19 05:18:11;;;;;;;2.13;2.00;;;;;;;15.69;90.50;100645.44;5012638;28;20199;-69
2022/05/19 05:20:43;;;;;;;2.10;2.00;;;;;;;16.03;90.50;100652.13;5012971;28;20214;-69
2022/05/19 05:23:10;;;;;;;1.53;1.53;;;;;;;16.20;86.70;100657.59;5012720;28;20209;-69
2022/05/19 05:25:36;;;;;;;5.40;1.73;;;;;;;16.06;89.14;100654.59;5012266;28;20213;-68
2022/05/19 05:28:04;;;;;;;1.40;1.40;;;;;;;16.07;87.08;100659.75;5009941;28;20202;-68
2022/05/19 05:30:32;;;;;;;1.67;1.57;;;;;;;16.14;87.67;100665.56;5012233;28;20682;-69
2022/05/19 05:33:04;;;;;;;1.40;1.40;;;;;;;15.97;85.63;100647.13;5012266;28;20656;-69
2022/05/19 05:35:31;;;;;;;1.57;1.47;;;;;;;15.84;87.07;100651.00;5012288;28;20200;-68
2022/05/19 05:37:59;;;;;;;2.43;1.77;;;;;;;15.99;86.66;100660.88;5012812;28;20204;-69
2022/05/19 05:40:27;;;;;;;2.43;2.10;;;;;;;15.82;87.51;100657.97;5012664;28;21202;-68
2022/05/19 05:42:54;;;;;;;2.00;1.90;;;;;;;15.75;89.40;100634.91;5012535;28;20678;-68
2022/05/19 05:45:21;;;;;;;1.77;1.77;;;;;;;15.95;87.31;100659.28;5011820;28;20202;-68
2022/05/19 05:47:48;;;;;;;2.83;1.53;;;;;;;15.97;88.68;100657.50;5012125;28;20216;-68
2022/05/19 05:50:15;;;;;;;2.90;1.90;;;;;;;16.24;90.20;100659.19;5009266;28;20228;-68
2022/05/19 05:52:44;;;;;;;2.07;1.97;;;;;;;16.42;88.35;100661.16;5009771;28;20208;-69
2022/05/19 05:55:13;;;;;;;2.23;2.13;;;;;;;16.72;88.76;100664.47;5009536;28;20198;-69
2022/05/19 05:57:40;;;;;;;1.83;1.73;;;;;;;16.95;87.46;100661.91;5010387;28;20645;-66
2022/05/19 06:00:09;;;;;;;1.57;1.57;;;;;;;17.12;87.60;100653.53;5011343;28;20194;-66
2022/05/19 06:02:36;;;;;;;1.27;1.27;;;;;;;17.02;84.82;100659.94;5011523;28;20198;-66
2022/05/19 06:05:03;;;;;;;1.43;1.43;;;;;;;16.99;84.41;100662.63;5010459;28;20209;-67
2022/05/19 06:07:30;;;;;;;1.30;1.30;;;;;;;17.21;84.06;100651.44;5009885;28;20225;-67
2022/05/19 06:09:57;;;;;;;1.47;1.37;;;;;;;17.29;83.99;100656.31;5011442;28;20210;-67
2022/05/19 06:12:25;;;;;;;1.60;1.40;;;;;;;17.49;82.90;100664.19;5010577;28;20202;-66
2022/05/19 06:14:55;;;;;;;3.00;1.70;;;;;;;17.64;81.97;100661.00;5011410;28;20202;-66
2022/05/19 06:17:23;;;;;;;2.77;1.47;;;;;;;17.63;80.63;100646.38;5011005;28;20660;-67
2022/05/19 06:19:50;;;;;;;1.30;1.30;;;;;;;17.69;79.72;100666.88;5010594;28;20204;-65
2022/05/19 06:22:17;;;;;;;5.43;1.30;;;;;;;17.77;79.99;100653.63;5010782;28;20559;-68
2022/05/19 06:24:44;;;;;;;1.63;1.53;;;;;;;18.08;78.09;100668.78;5008102;28;20202;-70
2022/05/19 06:27:11;;;;;;;1.37;1.37;;;;;;;18.38;77.79;100667.53;5011261;28;20202;-70
2022/05/19 06:29:40;;;;;;;1.40;1.30;;;;;;;18.60;77.38;100667.50;5011181;28;20217;-69
2022/05/19 06:32:07;;;;;;;0.90;0.90;;;;;;;18.87;72.78;100672.31;5010087;28;20218;-71
2022/05/19 06:34:35;;;;;;;1.10;0.90;;;;;;;18.84;73.67;100672.44;5011389;28;20200;-68
2022/05/19 06:37:02;;;;;;;1.15;1.15;;;;;;;19.15;73.83;100676.31;5011252;28;20202;-68
2022/05/19 06:39:29;;;;;;;2.20;1.27;;;;;;;19.38;70.55;100670.91;5011905;28;20732;-69
2022/05/19 06:42:02;;;;;;;1.07;1.07;;;;;;;19.37;70.63;100656.22;5011492;28;20197;-70
2022/05/19 06:44:31;;;;;;;3.33;1.30;;;;;;;19.61;72.22;100670.69;5010388;28;20191;-66
2022/05/19 06:47:00;;;;;;;1.43;1.17;;;;;;;19.68;73.27;100672.09;5009808;28;20202;-66
2022/05/19 06:49:27;;;;;;;1.17;1.17;;;;;;;19.93;71.73;100667.38;5010531;28;20213;-67
2022/05/19 06:51:54;;;;;;;1.20;1.20;;;;;;;19.73;68.50;100657.13;5011149;28;20662;-66
2022/05/19 06:54:22;;;;;;;1.97;1.50;;;;;;;20.07;72.43;100650.25;5010992;28;20206;-68
2022/05/19 06:56:49;;;;;;;2.23;1.30;;;;;;;20.41;71.64;100673.75;5011610;28;20218;-68
2022/05/19 06:59:17;;;;;;;1.00;1.00;;;;;;;20.39;66.01;100686.00;5010847;28;20268;-70
2022/05/19 07:01:45;;;;;;;1.23;1.20;;;;;;;20.31;69.58;100667.31;5011447;28;20194;-71
2022/05/19 07:04:14;;;;;;;1.80;1.10;;;;;;;20.32;69.41;100666.41;5009423;28;20699;-70
2022/05/19 07:06:41;;;;;;;6.50;1.80;;;;;;;20.41;67.37;100679.81;5010328;28;20606;-71
2022/05/19 07:09:08;;;;;;;0.97;0.97;;;;;;;20.54;68.98;100672.22;5009717;28;20218;-71
2022/05/19 07:11:35;;;;;;;0.80;0.80;;;;;;;20.77;67.07;100668.44;5009530;28;20218;-70
2022/05/19 07:14:04;;;;;;;2.30;1.40;;;;;;;20.85;66.75;100667.09;5008549;28;20241;-71
2022/05/19 07:16:32;;;;;;;0.90;0.90;;;;;;;21.10;67.27;100663.25;5008762;28;20207;-70
2022/05/19 07:21:46;;;;;;;3.47;1.47;;;;;;;21.39;67.93;100665.09;5006568;28;20297;-70
2022/05/19 07:24:15;;;;;;;0.87;0.87;;;;;;;21.61;62.25;100664.78;5008817;28;20204;-70
2022/05/19 07:26:43;;;;;;;0.93;0.93;;;;;;;21.44;61.50;100670.91;5007989;28;20211;-70
2022/05/19 07:29:09;;;;;;;1.03;1.03;;;;;;;21.71;64.31;100666.75;5009208;28;20208;-70
2022/05/19 07:31:37;;;;;;;0.80;0.80;;;;;;;22.01;63.94;100663.38;5008962;28;20222;-70
2022/05/19 07:34:05;;;;;;;1.37;0.80;;;;;;;21.75;58.48;100652.63;5009958;28;20559;-70
2022/05/19 07:36:33;;;;;;;1.00;1.00;;;;;;;21.95;59.66;100660.19;5007140;28;20197;-69
2022/05/19 07:39:01;;;;;;;0.63;0.63;;;;;;;22.02;59.55;100654.63;5009912;28;20652;-69
2022/05/19 07:41:29;;;;;;;1.00;1.00;;;;;;;22.20;60.51;100658.78;5009564;28;20264;-70
2022/05/19 07:43:57;;;;;;;2.90;0.70;;;;;;;21.97;58.64;100657.50;5008751;28;20201;-70
2022/05/19 07:46:25;;;;;;;0.60;0.60;;;;;;;21.66;55.68;100653.13;5009194;28;20622;-68
2022/05/19 07:48:54;;;;;;;0.70;0.70;;;;;;;22.00;60.69;100651.28;5008717;28;20223;-67
2022/05/19 07:51:21;;;;;;;1.03;1.03;;;;;;;22.28;60.14;100653.97;5008100;28;20278;-69
2022/05/19 07:53:48;;;;;;;1.17;1.17;;;;;;;22.39;57.90;100660.22;5008634;28;20598;-67
2022/05/19 07:56:17;;;;;;;1.20;0.87;;;;;;;22.31;54.21;100661.63;5008899;28;20205;-69
2022/05/19 07:58:46;;;;;;;0.77;0.73;;;;;;;22.36;55.50;100647.34;5008804;28;20574;-69
2022/05/19 08:01:13;;;;;;;1.13;0.90;;;;;;;22.68;55.71;100663.75;5008138;28;20233;-69
2022/05/19 08:03:41;;;;;;;1.10;0.70;;;;;;;22.72;53.54;100667.88;5009093;28;20272;-69
2022/05/19 08:06:10;;;;;;;1.00;1.00;;;;;;;22.66;54.42;100660.41;5008455;28;20671;-70
2022/05/19 08:08:37;;;;;;;1.63;0.80;;;;;;;22.68;54.84;100661.13;5008816;28;20301;-70
2022/05/19 08:11:05;;;;;;;0.93;0.93;;;;;;;22.89;54.92;100657.25;5008648;28;20888;-73
2022/05/19 08:16:18;;;;;;;0.70;0.70;;;;;;;22.93;54.16;100660.50;5012864;28;20788;-69
2022/05/19 08:18:45;;;;;;;0.93;0.93;;;;;;;22.91;58.67;100657.97;5012273;28;20230;-69
2022/05/19 08:21:13;;;;;;;2.83;0.77;;;;;;;23.02;54.63;100645.09;5012182;28;20708;-69
2022/05/19 08:23:42;;;;;;;0.77;0.77;;;;;;;23.00;57.33;100644.34;5012920;28;20201;-71
2022/05/19 08:26:10;;;;;;;0.77;0.77;;;;;;;23.36;53.54;100651.66;5011588;28;20213;-67
2022/05/19 08:28:41;;;;;;;3.90;1.20;;;;;;;23.36;50.11;100643.00;5011767;28;20217;-67
2022/05/19 08:31:10;;;;;;;3.67;0.67;;;;;;;23.64;48.73;100652.56;5010618;28;20218;-67
2022/05/19 08:33:38;;;;;;;0.90;0.90;;;;;;;23.75;51.77;100650.94;5011110;28;20287;-68
2022/05/19 08:36:07;;;;;;;0.80;0.80;;;;;;;23.55;48.17;100643.53;5010873;28;20206;-70
2022/05/19 08:38:34;;;;;;;0.77;0.77;;;;;;;23.63;48.20;100640.41;5011775;28;20233;-69
2022/05/19 08:41:06;;;;;;;0.67;0.67;;;;;;;23.75;46.95;100623.94;5012077;28;20206;-69
2022/05/19 08:43:44;;;;;;;0.70;0.70;;;;;;;24.05;42.68;100643.69;5011225;28;20205;-71
2022/05/19 08:46:19;;;;;;;0.50;0.50;;;;;;;24.31;41.33;100647.22;5011661;28;20647;-70
2022/05/19 08:48:50;;;;;;;0.77;0.67;;;;;;;24.48;40.00;100643.47;5010914;28;20209;-69
2022/05/19 08:51:18;;;;;;;1.03;1.03;;;;;;;24.29;41.46;100645.66;5011854;28;20232;-71
2022/05/19 08:53:46;;;;;;;0.87;0.87;;;;;;;24.19;43.43;100647.22;5012489;28;20224;-70
2022/05/19 08:56:27;;;;;;;0.93;0.93;;;;;;;24.39;41.32;100649.34;5012682;28;20202;-70
2022/05/19 08:59:08;;;;;;;0.50;0.50;;;;;;;24.48;39.54;100640.84;5012626;28;20210;-70
2022/05/19 09:01:41;;;;;;;0.93;0.93;;;;;;;24.46;39.72;100647.97;5011122;28;20206;-70
2022/05/19 09:04:26;;;;;;;1.13;0.63;;;;;;;24.22;37.74;100639.16;5010681;28;20202;-67
2022/05/19 09:10:04;;;;;;;0.70;0.70;;;;;;;24.58;35.50;100641.06;5011059;28;20252;-69
2022/05/19 09:12:35;;;;;;;1.30;0.60;;;;;;;24.78;36.30;100633.47;5010101;28;20570;-71
2022/05/19 09:15:07;;;;;;;0.67;0.67;;;;;;;24.97;36.62;100631.31;5010916;28;20205;-71
2022/05/19 09:17:38;;;;;;;0.60;0.60;;;;;;;24.83;36.13;100631.44;5010619;28;20202;-70
2022/05/19 09:20:10;;;;;;;0.57;0.57;;;;;;;24.84;39.36;100621.78;5012435;28;20574;-72
2022/05/19 09:22:37;;;;;;;0.73;0.73;;;;;;;24.71;41.61;100626.16;5012916;28;20283;-71
2022/05/19 09:25:08;;;;;;;0.53;0.53;;;;;;;24.80;37.69;100621.13;5012247;28;20206;-71
2022/05/19 09:27:36;;;;;;;0.93;0.93;;;;;;;24.71;39.68;100616.53;5010905;28;20194;-71
2022/05/19 09:30:13;;;;;;;0.63;0.63;;;;;;;24.63;33.16;100620.59;5010568;28;20254;-68
2022/05/19 09:32:46;;;;;;;0.80;0.80;;;;;;;24.75;35.46;100614.53;5010571;28;20228;-71
2022/05/19 09:35:18;;;;;;;0.80;0.80;;;;;;;24.66;36.48;100607.28;5011391;28;20206;-70
2022/05/19 09:37:48;;;;;;;0.97;0.97;;;;;;;24.74;39.62;100604.97;5011463;28;20198;-70
2022/05/19 09:40:30;;;;;;;2.63;0.73;;;;;;;24.89;41.03;100606.53;5011065;28;20261;-70
2022/05/19 09:43:03;;;;;;;0.70;0.70;;;;;;;25.03;37.44;100611.66;5011834;28;20201;-70
2022/05/19 09:45:38;;;;;;;0.80;0.80;;;;;;;25.06;36.46;100596.56;5012553;28;20206;-69
2022/05/19 09:48:07;;;;;;;0.50;0.50;;;;;;;25.21;37.49;100609.50;5010720;28;20216;-70
2022/05/19 09:50:41;;;;;;;0.83;0.83;;;;;;;25.35;38.36;100591.81;5010632;28;20617;-70
2022/05/19 09:53:14;;;;;;;0.93;0.93;;;;;;;25.30;39.60;100572.94;5009663;28;20209;-70
2022/05/19 09:55:42;;;;;;;0.60;0.60;;;;;;;25.50;40.78;100582.00;5009515;28;20210;-69
2022/05/19 09:58:11;;;;;;;0.77;0.77;;;;;;;25.59;41.01;100573.44;5011357;28;20289;-70
2022/05/19 10:00:44;;;;;;;0.70;0.70;;;;;;;25.72;36.89;100583.91;5012253;28;20221;-68
2022/05/19 10:03:19;;;;;;;0.70;0.70;;;;;;;25.70;40.26;100570.03;5009763;28;20682;-68
2022/05/19 10:05:50;;;;;;;1.20;1.10;;;;;;;25.50;38.57;100582.00;5011765;28;20255;-67
2022/05/19 10:08:20;;;;;;;1.67;1.57;;;;;;;25.37;37.63;100562.81;5010057;28;20230;-69
2022/05/19 10:10:55;;;;;;;1.17;1.03;;;;;;;25.63;37.58;100568.81;5009090;28;20225;-69
2022/05/19 10:13:29;;;;;;;0.80;0.80;;;;;;;25.71;35.33;100566.47;5010146;28;20201;-67
2022/05/19 10:16:07;;;;;;;0.60;0.60;;;;;;;25.78;39.05;100565.91;5009305;28;20293;-72
2022/05/19 10:19:08;;;;;;;0.90;0.90;;;;;;;25.86;39.41;100565.31;5010756;28;20210;-67
2022/05/19 10:21:56;;;;;;;0.63;0.63;;;;;;;25.55;36.73;100558.91;4997353;28;20226;-67
2022/05/19 10:24:48;;;;;;;0.70;0.70;;;;;;;25.35;41.07;100555.06;5010514;28;20206;-67
2022/05/19 10:33:10;;;;;;;1.00;1.00;;;;;;;25.40;36.94;100552.94;5008499;28;20603;-65
2022/05/19 10:35:51;;;;;;;0.80;0.80;;;;;;;25.56;39.54;100542.16;5009357;28;20247;-69
2022/05/19 10:38:38;;;;;;;0.60;0.60;;;;;;;25.47;37.02;100537.56;5009924;28;20252;-70
2022/05/19 10:41:13;;;;;;;2.00;0.70;;;;;;;25.62;39.59;100528.59;5008822;28;20202;-70
2022/05/19 10:44:01;;;;;;;1.43;1.17;;;;;;;25.62;40.37;100520.72;5010273;28;20748;-71
2022/05/19 10:46:39;;;;;;;0.87;0.80;;;;;;;25.34;39.78;100527.13;5010843;28;20279;-67
2022/05/19 10:49:28;;;;;;;0.80;0.80;;;;;;;25.05;42.17;100505.63;5010192;28;20279;-72
2022/05/19 10:52:05;;;;;;;0.80;0.80;;;;;;;24.96;38.88;100527.31;5010728;28;20694;-70
2022/05/19 10:54:51;;;;;;;0.80;0.80;;;;;;;24.96;41.63;100516.81;5008932;28;20202;-72
2022/05/19 10:57:34;;;;;;;0.80;0.80;;;;;;;25.14;41.20;100524.31;5010055;28;20206;-68
2022/05/19 11:00:13;;;;;;;0.97;0.70;;;;;;;24.92;38.50;100527.63;5011206;28;20245;-69
2022/05/19 11:03:12;;;;;;;0.60;0.60;;;;;;;24.85;37.57;100518.50;5008440;28;20264;-67
2022/05/19 11:05:49;;;;;;;3.70;0.70;;;;;;;24.86;41.48;100514.94;5001451;28;20220;-70
2022/05/19 11:08:31;;;;;;;0.70;0.70;;;;;;;24.85;40.96;100514.09;5008906;28;20682;-70
2022/05/19 11:11:05;;;;;;;0.50;0.50;;;;;;;25.08;39.82;100515.91;5008548;28;20602;-69
2022/05/19 11:13:46;;;;;;;2.00;1.13;;;;;;;25.18;39.44;100510.00;5008093;28;20561;-70
2022/05/19 11:16:22;;;;;;;0.80;0.80;;;;;;;25.16;36.92;100504.03;5009023;28;20588;-68
2022/05/19 11:18:54;;;;;;;5.03;0.80;;;;;;;24.96;38.41;100500.22;5010300;28;20585;-70
2022/05/19 11:21:33;;;;;;;0.83;0.83;;;;;;;24.76;37.32;100478.00;5010154;28;20214;-69
2022/05/19 11:24:10;;;;;;;0.60;0.60;;;;;;;24.85;42.56;100498.34;5009286;28;20256;-69
2022/05/19 11:26:44;;;;;;;2.10;1.03;;;;;;;25.02;39.44;100490.13;5008416;28;20225;-68
2022/05/19 11:29:20;;;;;;;0.93;0.70;;;;;;;25.14;36.85;100482.31;5009429;28;20206;-68
2022/05/19 11:31:56;;;;;;;0.60;0.60;;;;;;;25.17;40.06;100482.09;5010045;28;20226;-71
2022/05/19 11:34:31;;;;;;;2.57;0.90;;;;;;;25.23;37.93;100474.59;5008692;28;20198;-70
2022/05/19 11:37:07;;;;;;;0.80;0.80;;;;;;;25.29;36.55;100454.94;5010392;28;20202;-68
2022/05/19 11:39:38;;;;;;;0.90;0.90;;;;;;;24.93;36.46;100469.81;5009569;28;20205;-69
2022/05/19 11:42:22;;;;;;;0.87;0.87;;;;;;;25.02;40.81;100460.41;5010202;28;20202;-69
2022/05/19 11:44:50;;;;;;;0.80;0.80;;;;;;;24.91;34.90;100461.19;5009940;28;20688;-69
2022/05/19 11:55:49;;;;;;;2.57;0.70;;;;;;;25.47;35.53;100456.16;5009478;28;20336;-68
2022/05/19 11:58:21;;;;;;;1.03;1.03;;;;;;;25.24;34.10;100438.66;5008984;28;20202;-65
2022/05/19 12:00:55;;;;;;;0.93;0.70;;;;;;;24.90;34.39;100441.16;5007505;28;20206;-65